Aérodrome :
LOGIN :

S'inscrire | Disclaimer

   EN    FR    IT 

 










Légende :    VFR   VFR Marginal   IFR   IFR Intensif   IFR Très Intensif
Visi : 
Plafond : 
>= 8 km
>= 3000ft
5 à 8 km
1000 à 3000 ft
1500m à 5 km
500 à 1000 ft
800 à 1500m
200 à 500 ft
< 800m
< 200 ft
Symboles :   Orages  Brouillard  Fortes neiges  Fortes précipitations  Vent > 20 kt
SIGMETs :   Divers  Orages  Givrage  Turbulence  Onde Orograph.  Cendres Volcan.







- Altitude de l'aérodrome : 313 ft
- Voir les cartes d'approche


LFQA - Reims-Prunay

DERNIER METAR :
  • 211300Z AUTO 30007KT 260V340 9999 BKN033 BKN040 OVC046 22/14 Q1013

METARs EXPIRÉS :
  • 211230Z AUTO 25007KT 220V290 9999 FEW031 BKN044 23/15 Q1013
  • 211200Z AUTO 25008KT 200V290 9999 FEW028 BKN039 OVC045 22/15 Q1013
  • 211130Z AUTO 26007KT 220V310 9999 BKN027 BKN033 OVC039 21/15 Q1013
  • 211100Z AUTO 29006KT 240V330 9999 BKN028 BKN037 OVC043 21/15 Q1013
  • 211030Z AUTO 26006KT 240V300 9999 SCT025 BKN033 OVC042 21/15 Q1013

TAF N/A
Pas de NOTAMs connus pour ce terrain.



MET'MAP, la Météo Aéronautique d'un coup d'oeil ! - Copyright ORBIFLY Décembre 2007 - Disclaimer

ORBIFLY MET'MAP TEAM :

Programmation & Développement : Alexandra Zaïnal
Conception & Développement : Baudouin d'Aumeries
Co-Programmation & Développement : Marc-Olivier Méhu
Soutien technique & logistique : Manuel Goepfert

Contact : metmap@orbifly.com




SOURCES & CREDITS :

   NOAA